PWSweather.com
Personal Weather Stations
Station Observations
IBRABANT12
Leuven, BlandenBE 3052

LeuvenBlandenBE 3052

Lat: 50.8252218, Lon: 4.709682799999996

Elevation: 193

Station Type: Davis Vantage Vue

http://www.weerstationblanden.be

Latest ConditionsUpdated 8:10:10 PM GMT+01:01 Tuesday, Jan 24, 2017
Currently Today's Max Today's Min Today's Average
Temperature 33.8°F1.0°C 37.4°F3.0°C 31.6°F-0.2°C 33.6°F0.9°C
Dew Point 31.9°F-0.1°C 35.5°F1.9°C 30.2°F-1.0°C 32.2°F0.1°C
Winds 1.2 mph E1.9 kmh E 4.0 mph SW6.4 kmh SW - 1.3 mph 2.1 kmh
Wind Gusts 2.0 mph3.2 kmh 5.0 mph8.0 kmh - -
Humidity 93% 96% 92% 95%
Pressure 30.36 in1028.1 mb 30.36 in1028.1 mb 30.26 in1024.7 mb -
Hour Temp Dew Point Humidity Winds Wind Gusts Pressure Precip Precip Rate Daily Precip Total
08:10 PM 33.8°F1.0°C 31.9°F-0.1°C 93% 1.2 mph E1.9 kmh E 2.0 mph3.2 kmh 30.36 in1028.1 mb - 0.00 in0.0 mm 0.00 in0.0 mm
08:00 PM 33.7°F0.9°C 31.9°F-0.1°C 93% 0.4 mph E0.6 kmh E 2.0 mph3.2 kmh 30.36 in1028.1 mb - 0.00 in0.0 mm 0.00 in0.0 mm
07:50 PM 33.9°F1.1°C 32.1°F0.1°C 93% 1.8 mph E2.9 kmh E 3.0 mph4.8 kmh 30.36 in1028.1 mb - 0.00 in0.0 mm 0.00 in0.0 mm
07:40 PM 33.9°F1.1°C 32.1°F0.1°C 93% 0.5 mph ESE0.8 kmh ESE 1.0 mph1.6 kmh 30.36 in1028.1 mb - 0.00 in0.0 mm 0.00 in0.0 mm
07:30 PM 34.0°F1.1°C 32.2°F0.1°C 93% 3.1 mph E5.0 kmh E 4.0 mph6.4 kmh 30.36 in1028.1 mb - 0.00 in0.0 mm 0.00 in0.0 mm
07:20 PM 34.1°F1.2°C 32.3°F0.2°C 93% 1.9 mph E3.1 kmh E 5.0 mph8.0 kmh 30.35 in1027.8 mb - 0.00 in0.0 mm 0.00 in0.0 mm
07:10 PM 34.2°F1.2°C 32.4°F0.2°C 93% 1.9 mph ESE3.1 kmh ESE 3.0 mph4.8 kmh 30.35 in1027.8 mb - 0.00 in0.0 mm 0.00 in0.0 mm
07:00 PM 34.3°F1.3°C 32.5°F0.3°C 93% 0.7 mph E1.1 kmh E 2.0 mph3.2 kmh 30.35 in1027.8 mb - 0.00 in0.0 mm 0.00 in0.0 mm
06:50 PM 34.4°F1.3°C 32.6°F0.3°C 93% 0.8 mph E1.3 kmh E 2.0 mph3.2 kmh 30.35 in1027.8 mb - 0.00 in0.0 mm 0.00 in0.0 mm
06:40 PM 34.6°F1.4°C 32.8°F0.4°C 93% 1.0 mph ESE1.6 kmh ESE 2.0 mph3.2 kmh 30.35 in1027.8 mb - 0.00 in0.0 mm 0.00 in0.0 mm
06:30 PM 34.8°F1.6°C 33.0°F0.6°C 93% 2.5 mph E4.0 kmh E 3.0 mph4.8 kmh 30.35 in1027.8 mb - 0.00 in0.0 mm 0.00 in0.0 mm
06:20 PM 35.0°F1.7°C 33.2°F0.7°C 93% 1.9 mph SE3.1 kmh SE 5.0 mph8.0 kmh 30.34 in1027.4 mb - 0.00 in0.0 mm 0.00 in0.0 mm
06:10 PM 35.2°F1.8°C 33.4°F0.8°C 93% 2.7 mph E4.3 kmh E 4.0 mph6.4 kmh 30.34 in1027.4 mb - 0.00 in0.0 mm 0.00 in0.0 mm
06:00 PM 35.3°F1.8°C 33.5°F0.8°C 93% 0.9 mph E1.4 kmh E 1.0 mph1.6 kmh 30.34 in1027.4 mb - 0.00 in0.0 mm 0.00 in0.0 mm
05:50 PM 35.5°F1.9°C 33.6°F0.9°C 93% 1.7 mph ESE2.7 kmh ESE 2.0 mph3.2 kmh 30.34 in1027.4 mb - 0.00 in0.0 mm 0.00 in0.0 mm
05:40 PM 35.5°F1.9°C 33.7°F0.9°C 93% 0.9 mph ESE1.4 kmh ESE 1.0 mph1.6 kmh 30.34 in1027.4 mb - 0.00 in0.0 mm 0.00 in0.0 mm
05:30 PM 35.7°F2.1°C 33.9°F1.1°C 93% 1.6 mph E2.6 kmh E 2.0 mph3.2 kmh 30.34 in1027.4 mb - 0.00 in0.0 mm 0.00 in0.0 mm
05:20 PM 35.9°F2.2°C 34.1°F1.2°C 93% 1.0 mph ESE1.6 kmh ESE 2.0 mph3.2 kmh 30.34 in1027.4 mb - 0.00 in0.0 mm 0.00 in0.0 mm
05:10 PM 35.9°F2.2°C 34.1°F1.2°C 93% 0.4 mph SE0.6 kmh SE 1.0 mph1.6 kmh 30.34 in1027.4 mb - 0.00 in0.0 mm 0.00 in0.0 mm
05:00 PM 36.0°F2.2°C 34.2°F1.2°C 93% 0.7 mph E1.1 kmh E 1.0 mph1.6 kmh 30.34 in1027.4 mb - 0.00 in0.0 mm 0.00 in0.0 mm
04:50 PM 36.1°F2.3°C 34.0°F1.1°C 92% 1.7 mph E2.7 kmh E 3.0 mph4.8 kmh 30.33 in1027.1 mb - 0.00 in0.0 mm 0.00 in0.0 mm
04:40 PM 36.3°F2.4°C 34.5°F1.4°C 93% 1.0 mph ENE1.6 kmh ENE 1.0 mph1.6 kmh 30.33 in1027.1 mb - 0.00 in0.0 mm 0.00 in0.0 mm
04:30 PM 36.3°F2.4°C 34.2°F1.2°C 92% 1.3 mph E2.1 kmh E 2.0 mph3.2 kmh 30.33 in1027.1 mb - 0.00 in0.0 mm 0.00 in0.0 mm
04:20 PM 36.4°F2.4°C 34.3°F1.3°C 92% 1.2 mph E1.9 kmh E 2.0 mph3.2 kmh 30.33 in1027.1 mb - 0.00 in0.0 mm 0.00 in0.0 mm
04:10 PM 36.6°F2.6°C 34.5°F1.4°C 92% 0.9 mph ESE1.4 kmh ESE 2.0 mph3.2 kmh 30.32 in1026.8 mb - 0.00 in0.0 mm 0.00 in0.0 mm
04:00 PM 36.8°F2.7°C 34.7°F1.5°C 92% 2.1 mph ENE3.4 kmh ENE 2.0 mph3.2 kmh 30.33 in1027.1 mb - 0.00 in0.0 mm 0.00 in0.0 mm
03:50 PM 37.3°F2.9°C 35.5°F1.9°C 93% Calm Calm -- 30.33 in1027.1 mb - 0.00 in0.0 mm 0.00 in0.0 mm
03:40 PM 37.0°F2.8°C 35.1°F1.7°C 93% Calm Calm -- 30.32 in1026.8 mb - 0.00 in0.0 mm 0.00 in0.0 mm
03:30 PM 36.8°F2.7°C 34.7°F1.5°C 92% Calm Calm -- 30.32 in1026.8 mb - 0.00 in0.0 mm 0.00 in0.0 mm
03:20 PM 37.2°F2.9°C 35.1°F1.7°C 92% 0.7 mph W1.1 kmh W 1.0 mph1.6 kmh 30.32 in1026.8 mb - 0.00 in0.0 mm 0.00 in0.0 mm
03:10 PM 37.4°F3.0°C 35.2°F1.8°C 92% Calm Calm -- 30.32 in1026.8 mb - 0.00 in0.0 mm 0.00 in0.0 mm
03:00 PM 37.4°F3.0°C 35.3°F1.8°C 92% Calm Calm -- 30.32 in1026.8 mb - 0.00 in0.0 mm 0.00 in0.0 mm
02:50 PM 37.3°F2.9°C 35.2°F1.8°C 92% 0.4 mph SW0.6 kmh SW -- 30.32 in1026.8 mb - 0.00 in0.0 mm 0.00 in0.0 mm
02:40 PM 37.3°F2.9°C 35.2°F1.8°C 92% 0.1 mph SW0.2 kmh SW 1.0 mph1.6 kmh 30.32 in1026.8 mb - 0.00 in0.0 mm 0.00 in0.0 mm
02:30 PM 37.2°F2.9°C 35.4°F1.9°C 93% Calm Calm 1.0 mph1.6 kmh 30.32 in1026.8 mb - 0.00 in0.0 mm 0.00 in0.0 mm
02:20 PM 36.9°F2.7°C 35.1°F1.7°C 93% Calm Calm -- 30.32 in1026.8 mb - 0.00 in0.0 mm 0.00 in0.0 mm
02:10 PM 36.8°F2.7°C 35.0°F1.7°C 93% Calm Calm 1.0 mph1.6 kmh 30.32 in1026.8 mb - 0.00 in0.0 mm 0.00 in0.0 mm
02:00 PM 36.7°F2.6°C 34.9°F1.6°C 93% Calm Calm 1.0 mph1.6 kmh 30.31 in1026.4 mb - 0.00 in0.0 mm 0.00 in0.0 mm
01:50 PM 37.0°F2.8°C 35.4°F1.9°C 94% Calm Calm -- 30.32 in1026.8 mb - 0.00 in0.0 mm 0.00 in0.0 mm
01:40 PM 36.7°F2.6°C 35.1°F1.7°C 94% Calm Calm -- 30.32 in1026.8 mb - 0.00 in0.0 mm 0.00 in0.0 mm
01:30 PM 36.2°F2.3°C 34.6°F1.4°C 94% Calm Calm 1.0 mph1.6 kmh 30.32 in1026.8 mb - 0.00 in0.0 mm 0.00 in0.0 mm
01:20 PM 36.5°F2.5°C 35.0°F1.7°C 94% 0.7 mph NNE1.1 kmh NNE 2.0 mph3.2 kmh 30.32 in1026.8 mb - 0.00 in0.0 mm 0.00 in0.0 mm
01:10 PM 36.7°F2.6°C 35.2°F1.8°C 94% 0.4 mph WSW0.6 kmh WSW 1.0 mph1.6 kmh 30.32 in1026.8 mb - 0.00 in0.0 mm 0.00 in0.0 mm
01:00 PM 36.9°F2.7°C 35.3°F1.8°C 94% 0.3 mph SSW0.5 kmh SSW -- 30.32 in1026.8 mb - 0.00 in0.0 mm 0.00 in0.0 mm
12:50 PM 36.7°F2.6°C 35.4°F1.9°C 95% 0.2 mph SSW0.3 kmh SSW -- 30.32 in1026.8 mb - 0.00 in0.0 mm 0.00 in0.0 mm
12:40 PM 36.0°F2.2°C 34.7°F1.5°C 95% Calm Calm -- 30.32 in1026.8 mb - 0.00 in0.0 mm 0.00 in0.0 mm
12:30 PM 36.1°F2.3°C 35.1°F1.7°C 96% 0.8 mph WSW1.3 kmh WSW 1.0 mph1.6 kmh 30.32 in1026.8 mb - 0.00 in0.0 mm 0.00 in0.0 mm
12:20 PM 35.5°F1.9°C 34.5°F1.4°C 96% Calm Calm -- 30.32 in1026.8 mb - 0.00 in0.0 mm 0.00 in0.0 mm
12:10 PM 34.7°F1.5°C 33.7°F0.9°C 96% 0.4 mph SW0.6 kmh SW -- 30.32 in1026.8 mb - 0.00 in0.0 mm 0.00 in0.0 mm
12:00 PM 34.5°F1.4°C 33.4°F0.8°C 96% 1.2 mph SW1.9 kmh SW 2.0 mph3.2 kmh 30.33 in1027.1 mb - 0.00 in0.0 mm 0.00 in0.0 mm
11:50 AM 34.4°F1.3°C 33.4°F0.8°C 96% 0.2 mph SW0.3 kmh SW 1.0 mph1.6 kmh 30.33 in1027.1 mb - 0.00 in0.0 mm 0.00 in0.0 mm
11:40 AM 34.0°F1.1°C 33.0°F0.6°C 96% 1.2 mph SW1.9 kmh SW 2.0 mph3.2 kmh 30.32 in1026.8 mb - 0.00 in0.0 mm 0.00 in0.0 mm
11:30 AM 33.7°F0.9°C 32.7°F0.4°C 96% 0.5 mph SW0.8 kmh SW 1.0 mph1.6 kmh 30.33 in1027.1 mb - 0.00 in0.0 mm 0.00 in0.0 mm
11:20 AM 33.5°F0.8°C 32.5°F0.3°C 96% 0.3 mph SW0.5 kmh SW 1.0 mph1.6 kmh 30.33 in1027.1 mb - 0.00 in0.0 mm 0.00 in0.0 mm
11:10 AM 33.1°F0.6°C 32.0°F0.0°C 96% 1.5 mph SW2.4 kmh SW 2.0 mph3.2 kmh 30.32 in1026.8 mb - 0.00 in0.0 mm 0.00 in0.0 mm
11:00 AM 33.0°F0.6°C 32.0°F0.0°C 96% 0.6 mph SW1.0 kmh SW 1.0 mph1.6 kmh 30.32 in1026.8 mb - 0.00 in0.0 mm 0.00 in0.0 mm
10:50 AM 32.8°F0.4°C 31.8°F-0.1°C 96% 0.4 mph SW0.6 kmh SW 1.0 mph1.6 kmh 30.32 in1026.8 mb - 0.00 in0.0 mm 0.00 in0.0 mm
10:40 AM 32.6°F0.3°C 31.6°F-0.2°C 96% 1.0 mph SW1.6 kmh SW 1.0 mph1.6 kmh 30.32 in1026.8 mb - 0.00 in0.0 mm 0.00 in0.0 mm
10:30 AM 32.6°F0.3°C 31.6°F-0.2°C 96% 1.1 mph SW1.8 kmh SW 2.0 mph3.2 kmh 30.31 in1026.4 mb - 0.00 in0.0 mm 0.00 in0.0 mm
10:20 AM 32.5°F0.3°C 31.5°F-0.3°C 96% Calm Calm -- 30.31 in1026.4 mb - 0.00 in0.0 mm 0.00 in0.0 mm
10:10 AM 32.4°F0.2°C 31.4°F-0.3°C 96% 1.1 mph SW1.8 kmh SW 2.0 mph3.2 kmh 30.31 in1026.4 mb - 0.00 in0.0 mm 0.00 in0.0 mm
10:00 AM 32.4°F0.2°C 31.4°F-0.3°C 96% 0.3 mph SW0.5 kmh SW 1.0 mph1.6 kmh 30.30 in1026.1 mb - 0.00 in0.0 mm 0.00 in0.0 mm
09:50 AM 32.3°F0.2°C 31.3°F-0.4°C 96% 0.1 mph SW0.2 kmh SW 1.0 mph1.6 kmh 30.30 in1026.1 mb - 0.00 in0.0 mm 0.00 in0.0 mm
09:40 AM 32.2°F0.1°C 31.2°F-0.4°C 96% Calm Calm -- 30.30 in1026.1 mb - 0.00 in0.0 mm 0.00 in0.0 mm
09:30 AM 32.2°F0.1°C 31.2°F-0.4°C 96% Calm Calm -- 30.30 in1026.1 mb - 0.00 in0.0 mm 0.00 in0.0 mm
09:20 AM 32.2°F0.1°C 31.2°F-0.4°C 96% Calm Calm -- 30.30 in1026.1 mb - 0.00 in0.0 mm 0.00 in0.0 mm
09:10 AM 32.0°F0.0°C 31.0°F-0.6°C 96% Calm Calm -- 30.29 in1025.7 mb - 0.00 in0.0 mm 0.00 in0.0 mm
09:00 AM 32.0°F0.0°C 31.0°F-0.6°C 96% 0.7 mph WSW1.1 kmh WSW 1.0 mph1.6 kmh 30.29 in1025.7 mb - 0.00 in0.0 mm 0.00 in0.0 mm
08:50 AM 31.9°F-0.1°C 30.9°F-0.6°C 96% 1.4 mph WSW2.3 kmh WSW 2.0 mph3.2 kmh 30.29 in1025.7 mb - 0.00 in0.0 mm 0.00 in0.0 mm
08:40 AM 31.9°F-0.1°C 30.9°F-0.6°C 96% 1.7 mph SW2.7 kmh SW 2.0 mph3.2 kmh 30.29 in1025.7 mb - 0.00 in0.0 mm 0.00 in0.0 mm
08:30 AM 31.9°F-0.1°C 30.9°F-0.6°C 96% 0.1 mph W0.2 kmh W 1.0 mph1.6 kmh 30.29 in1025.7 mb - 0.00 in0.0 mm 0.00 in0.0 mm
08:20 AM 31.8°F-0.1°C 30.8°F-0.7°C 96% 1.2 mph SW1.9 kmh SW 2.0 mph3.2 kmh 30.28 in1025.4 mb - 0.00 in0.0 mm 0.00 in0.0 mm
08:10 AM 31.9°F-0.1°C 30.9°F-0.6°C 96% 2.3 mph SW3.7 kmh SW 3.0 mph4.8 kmh 30.28 in1025.4 mb - 0.00 in0.0 mm 0.00 in0.0 mm
08:00 AM 31.8°F-0.1°C 30.8°F-0.7°C 96% 0.9 mph SW1.4 kmh SW 1.0 mph1.6 kmh 30.28 in1025.4 mb - 0.00 in0.0 mm 0.00 in0.0 mm
07:50 AM 31.8°F-0.1°C 30.8°F-0.7°C 96% 0.5 mph SW0.8 kmh SW 1.0 mph1.6 kmh 30.27 in1025.1 mb - 0.00 in0.0 mm 0.00 in0.0 mm
07:40 AM 31.8°F-0.1°C 30.8°F-0.7°C 96% 1.9 mph SSW3.1 kmh SSW 3.0 mph4.8 kmh 30.27 in1025.1 mb - 0.00 in0.0 mm 0.00 in0.0 mm
07:30 AM 31.8°F-0.1°C 30.8°F-0.7°C 96% 2.5 mph WSW4.0 kmh WSW 2.0 mph3.2 kmh 30.27 in1025.1 mb - 0.00 in0.0 mm 0.00 in0.0 mm
07:20 AM 31.8°F-0.1°C 30.8°F-0.7°C 96% 0.3 mph SW0.5 kmh SW 2.0 mph3.2 kmh 30.27 in1025.1 mb - 0.00 in0.0 mm 0.00 in0.0 mm
07:10 AM 31.8°F-0.1°C 30.8°F-0.7°C 96% Calm Calm -- 30.27 in1025.1 mb - 0.00 in0.0 mm 0.00 in0.0 mm
07:00 AM 31.8°F-0.1°C 30.8°F-0.7°C 96% 2.1 mph SW3.4 kmh SW 2.0 mph3.2 kmh 30.27 in1025.1 mb - 0.00 in0.0 mm 0.00 in0.0 mm
06:50 AM 31.8°F-0.1°C 30.8°F-0.7°C 96% 1.4 mph SSW2.3 kmh SSW 2.0 mph3.2 kmh 30.27 in1025.1 mb - 0.00 in0.0 mm 0.00 in0.0 mm
06:40 AM 31.8°F-0.1°C 30.8°F-0.7°C 96% 1.3 mph SW2.1 kmh SW 2.0 mph3.2 kmh 30.27 in1025.1 mb - 0.00 in0.0 mm 0.00 in0.0 mm
06:30 AM 31.9°F-0.1°C 30.9°F-0.6°C 96% 3.0 mph SW4.8 kmh SW 4.0 mph6.4 kmh 30.27 in1025.1 mb - 0.00 in0.0 mm 0.00 in0.0 mm
06:20 AM 31.9°F-0.1°C 30.9°F-0.6°C 96% 3.9 mph SW6.3 kmh SW 5.0 mph8.0 kmh 30.27 in1025.1 mb - 0.00 in0.0 mm 0.00 in0.0 mm
06:10 AM 32.0°F0.0°C 31.0°F-0.6°C 96% 1.6 mph SW2.6 kmh SW 2.0 mph3.2 kmh 30.27 in1025.1 mb - 0.00 in0.0 mm 0.00 in0.0 mm
06:00 AM 32.0°F0.0°C 31.0°F-0.6°C 96% 2.0 mph SSW3.2 kmh SSW 2.0 mph3.2 kmh 30.27 in1025.1 mb - 0.00 in0.0 mm 0.00 in0.0 mm
05:50 AM 32.0°F0.0°C 31.0°F-0.6°C 96% 3.0 mph SW4.8 kmh SW 4.0 mph6.4 kmh 30.26 in1024.7 mb - 0.00 in0.0 mm 0.00 in0.0 mm
05:40 AM 32.0°F0.0°C 31.0°F-0.6°C 96% 1.3 mph SW2.1 kmh SW 2.0 mph3.2 kmh 30.27 in1025.1 mb - 0.00 in0.0 mm 0.00 in0.0 mm
05:30 AM 32.0°F0.0°C 31.0°F-0.6°C 96% 0.1 mph SW0.2 kmh SW 1.0 mph1.6 kmh 30.27 in1025.1 mb - 0.00 in0.0 mm 0.00 in0.0 mm
05:20 AM 32.0°F0.0°C 31.0°F-0.6°C 96% 1.6 mph SW2.6 kmh SW 2.0 mph3.2 kmh 30.27 in1025.1 mb - 0.00 in0.0 mm 0.00 in0.0 mm
05:10 AM 32.0°F0.0°C 31.0°F-0.6°C 96% 2.2 mph SW3.5 kmh SW 3.0 mph4.8 kmh 30.27 in1025.1 mb - 0.00 in0.0 mm 0.00 in0.0 mm
05:00 AM 32.0°F0.0°C 31.0°F-0.6°C 96% 1.7 mph SW2.7 kmh SW 2.0 mph3.2 kmh 30.27 in1025.1 mb - 0.00 in0.0 mm 0.00 in0.0 mm
04:50 AM 32.0°F0.0°C 30.7°F-0.7°C 95% 0.3 mph SW0.5 kmh SW 1.0 mph1.6 kmh 30.27 in1025.1 mb - 0.00 in0.0 mm 0.00 in0.0 mm
04:40 AM 32.0°F0.0°C 30.7°F-0.7°C 95% 1.5 mph SW2.4 kmh SW 2.0 mph3.2 kmh 30.27 in1025.1 mb - 0.00 in0.0 mm 0.00 in0.0 mm
04:30 AM 32.0°F0.0°C 30.7°F-0.7°C 95% 0.3 mph WSW0.5 kmh WSW 1.0 mph1.6 kmh 30.27 in1025.1 mb - 0.00 in0.0 mm 0.00 in0.0 mm
04:20 AM 32.0°F0.0°C 30.7°F-0.7°C 95% Calm Calm -- 30.27 in1025.1 mb - 0.00 in0.0 mm 0.00 in0.0 mm
04:10 AM 32.0°F0.0°C 30.7°F-0.7°C 95% 0.2 mph WSW0.3 kmh WSW -- 30.27 in1025.1 mb - 0.00 in0.0 mm 0.00 in0.0 mm
04:00 AM 31.8°F-0.1°C 30.5°F-0.8°C 95% 0.4 mph WSW0.6 kmh WSW 1.0 mph1.6 kmh 30.27 in1025.1 mb - 0.00 in0.0 mm 0.00 in0.0 mm
03:50 AM 31.8°F-0.1°C 30.5°F-0.8°C 95% 2.0 mph WSW3.2 kmh WSW 3.0 mph4.8 kmh 30.27 in1025.1 mb - 0.00 in0.0 mm 0.00 in0.0 mm
03:40 AM 31.8°F-0.1°C 30.5°F-0.8°C 95% 2.0 mph WSW3.2 kmh WSW 3.0 mph4.8 kmh 30.26 in1024.7 mb - 0.00 in0.0 mm 0.00 in0.0 mm
03:30 AM 31.8°F-0.1°C 30.5°F-0.8°C 95% 0.9 mph SW1.4 kmh SW 2.0 mph3.2 kmh 30.27 in1025.1 mb - 0.00 in0.0 mm 0.00 in0.0 mm
03:20 AM 31.7°F-0.2°C 30.4°F-0.9°C 95% 3.1 mph SW5.0 kmh SW 4.0 mph6.4 kmh 30.27 in1025.1 mb - 0.00 in0.0 mm 0.00 in0.0 mm
03:10 AM 31.7°F-0.2°C 30.4°F-0.9°C 95% 1.7 mph W2.7 kmh W 2.0 mph3.2 kmh 30.26 in1024.7 mb - 0.00 in0.0 mm 0.00 in0.0 mm
03:00 AM 31.7°F-0.2°C 30.4°F-0.9°C 95% 2.3 mph WSW3.7 kmh WSW 3.0 mph4.8 kmh 30.27 in1025.1 mb - 0.00 in0.0 mm 0.00 in0.0 mm
02:50 AM 31.6°F-0.2°C 30.3°F-0.9°C 95% 3.8 mph SW6.1 kmh SW 5.0 mph8.0 kmh 30.26 in1024.7 mb - 0.00 in0.0 mm 0.00 in0.0 mm
02:40 AM 31.6°F-0.2°C 30.3°F-0.9°C 95% 2.7 mph SW4.3 kmh SW 4.0 mph6.4 kmh 30.27 in1025.1 mb - 0.00 in0.0 mm 0.00 in0.0 mm
02:30 AM 31.6°F-0.2°C 30.3°F-0.9°C 95% 3.9 mph SW6.3 kmh SW 5.0 mph8.0 kmh 30.26 in1024.7 mb - 0.00 in0.0 mm 0.00 in0.0 mm
02:20 AM 31.6°F-0.2°C 30.3°F-0.9°C 95% 1.9 mph SW3.1 kmh SW 4.0 mph6.4 kmh 30.26 in1024.7 mb - 0.00 in0.0 mm 0.00 in0.0 mm
02:10 AM 31.6°F-0.2°C 30.3°F-0.9°C 95% 2.8 mph SW4.5 kmh SW 5.0 mph8.0 kmh 30.26 in1024.7 mb - 0.00 in0.0 mm 0.00 in0.0 mm
02:00 AM 31.6°F-0.2°C 30.3°F-0.9°C 95% 3.8 mph SW6.1 kmh SW 5.0 mph8.0 kmh 30.26 in1024.7 mb - 0.00 in0.0 mm 0.00 in0.0 mm
01:50 AM 31.7°F-0.2°C 30.4°F-0.9°C 95% 2.5 mph SW4.0 kmh SW 3.0 mph4.8 kmh 30.26 in1024.7 mb - 0.00 in0.0 mm 0.00 in0.0 mm
01:40 AM 31.7°F-0.2°C 30.4°F-0.9°C 95% 2.6 mph SW4.2 kmh SW 3.0 mph4.8 kmh 30.27 in1025.1 mb - 0.00 in0.0 mm 0.00 in0.0 mm
01:30 AM 31.7°F-0.2°C 30.4°F-0.9°C 95% 2.8 mph SW4.5 kmh SW 5.0 mph8.0 kmh 30.27 in1025.1 mb - 0.00 in0.0 mm 0.00 in0.0 mm
01:20 AM 31.8°F-0.1°C 30.2°F-1.0°C 94% 3.0 mph SW4.8 kmh SW 5.0 mph8.0 kmh 30.27 in1025.1 mb - 0.00 in0.0 mm 0.00 in0.0 mm
01:10 AM 31.8°F-0.1°C 30.3°F-0.9°C 94% 2.7 mph SW4.3 kmh SW 3.0 mph4.8 kmh 30.27 in1025.1 mb - 0.00 in0.0 mm 0.00 in0.0 mm
01:00 AM 31.8°F-0.1°C 30.3°F-0.9°C 94% 3.7 mph SW6.0 kmh SW 5.0 mph8.0 kmh 30.28 in1025.4 mb - 0.00 in0.0 mm 0.00 in0.0 mm
12:50 AM 31.9°F-0.1°C 30.4°F-0.9°C 94% 3.5 mph WSW5.6 kmh WSW 4.0 mph6.4 kmh 30.27 in1025.1 mb - 0.00 in0.0 mm 0.00 in0.0 mm
12:40 AM 31.9°F-0.1°C 30.4°F-0.9°C 94% 3.9 mph SW6.3 kmh SW 5.0 mph8.0 kmh 30.27 in1025.1 mb - 0.00 in0.0 mm 0.00 in0.0 mm
12:30 AM 32.0°F0.0°C 30.5°F-0.8°C 94% 3.1 mph SW5.0 kmh SW 5.0 mph8.0 kmh 30.27 in1025.1 mb - 0.00 in0.0 mm 0.00 in0.0 mm
12:20 AM 32.1°F0.1°C 30.6°F-0.8°C 94% 3.1 mph W5.0 kmh W 3.0 mph4.8 kmh 30.27 in1025.1 mb - 0.00 in0.0 mm 0.00 in0.0 mm
12:10 AM 32.2°F0.1°C 30.7°F-0.7°C 94% 3.9 mph SW6.3 kmh SW 4.0 mph6.4 kmh 30.27 in1025.1 mb - 0.00 in0.0 mm 0.00 in0.0 mm
12:00 AM 32.2°F0.1°C 30.4°F-0.9°C 93% 4.0 mph SW6.4 kmh SW 5.0 mph8.0 kmh 30.27 in1025.1 mb - 0.00 in0.0 mm 0.00 in0.0 mm